Airport ICAO


20:20 UTC

19°C

Clear skies


An affordable passengers' Moving Map for your aircraft. Made for the iPad and the iPhone
More information here

LFAT Paris Plage


Le Tourquet FRANCE   VFR CAVOK


METAR LFAT 162000Z AUTO 23003KT 190V270 CAVOK 19/14 Q1014 0h20min

TAF LFAT 161400Z 1615/1624 28008KT CAVOK BECMG 1622/1624 BKN005 6h20min





NOTAMS

OPEN